createdAt,value
2023-03-25T00:01:00.360Z,5.07
2023-03-25T00:02:05.954Z,5.85
2023-03-25T00:03:10.097Z,5.20
2023-03-25T00:04:13.019Z,5.20
2023-03-25T00:05:17.890Z,5.55
2023-03-25T00:06:20.484Z,5.03
2023-03-25T00:07:26.295Z,5.18
2023-03-25T00:08:28.774Z,4.93
2023-03-25T00:09:31.214Z,5.18
2023-03-25T00:10:33.734Z,6.45
2023-03-25T00:11:37.019Z,5.63
2023-03-25T00:12:39.457Z,4.47
2023-03-25T00:13:42.251Z,5.55
2023-03-25T00:14:54.685Z,5.28
2023-03-25T00:15:58.437Z,5.43
2023-03-25T00:17:01.397Z,5.35
2023-03-25T00:18:05.581Z,4.65
2023-03-25T00:19:09.869Z,5.43
2023-03-25T00:20:12.763Z,5.07
2023-03-25T00:21:18.988Z,5.47
2023-03-25T00:22:23.981Z,4.72
2023-03-25T00:23:27.223Z,4.82
2023-03-25T00:24:29.554Z,5.72
2023-03-25T00:25:32.534Z,4.80
2023-03-25T00:26:44.506Z,6.10
2023-03-25T00:27:48.880Z,5.43
2023-03-25T00:28:51.916Z,4.85
2023-03-25T00:29:54.605Z,4.55
2023-03-25T00:31:05.018Z,4.30
2023-03-25T00:32:08.971Z,5.20
2023-03-25T00:33:14.321Z,4.55
2023-03-25T00:34:18.335Z,4.95
2023-03-25T00:35:24.178Z,4.70
2023-03-25T00:36:26.675Z,4.43
2023-03-25T00:37:30.084Z,4.97
2023-03-25T00:38:35.651Z,4.60
2023-03-25T00:39:40.690Z,4.20
2023-03-25T00:40:43.217Z,4.32
2023-03-25T00:41:45.673Z,4.47
2023-03-25T00:42:50.669Z,4.47
2023-03-25T00:43:56.645Z,4.57
2023-03-25T00:44:58.823Z,4.20
2023-03-25T00:46:01.759Z,4.47
2023-03-25T00:47:04.226Z,4.28
2023-03-25T00:48:07.085Z,4.63
2023-03-25T00:49:12.386Z,4.95
2023-03-25T00:50:15.007Z,4.72
2023-03-25T00:51:21.957Z,4.05
2023-03-25T00:52:24.554Z,4.28
2023-03-25T00:53:26.748Z,4.22
2023-03-25T00:54:28.954Z,4.28
2023-03-25T00:55:31.304Z,4.22
2023-03-25T00:56:36.490Z,4.65
2023-03-25T00:57:39.004Z,4.35
2023-03-25T00:58:41.441Z,4.70
2023-03-25T00:59:43.637Z,4.40
2023-03-25T01:00:45.803Z,5.13
2023-03-25T01:01:47.957Z,4.55
2023-03-25T01:02:54.025Z,4.55
2023-03-25T01:03:58.167Z,4.60
2023-03-25T01:05:02.666Z,4.45
2023-03-25T01:06:09.103Z,3.95
2023-03-25T01:07:11.398Z,4.15
2023-03-25T01:08:14.825Z,3.92
2023-03-25T01:09:17.467Z,4.68
2023-03-25T01:10:19.914Z,4.20
2023-03-25T01:11:26.980Z,4.25
2023-03-25T01:12:29.351Z,4.03
2023-03-25T01:13:31.924Z,3.85
2023-03-25T01:14:37.722Z,4.28
2023-03-25T01:15:40.980Z,4.07
2023-03-25T01:16:43.844Z,3.80
2023-03-25T01:17:46.342Z,4.38
2023-03-25T01:18:49.103Z,4.80
2023-03-25T01:19:51.679Z,4.13
2023-03-25T01:20:56.330Z,4.05
2023-03-25T01:21:58.557Z,4.30
2023-03-25T01:23:01.093Z,4.20
2023-03-25T01:24:04.022Z,3.78
2023-03-25T01:25:06.973Z,4.00
2023-03-25T01:26:09.169Z,3.63
2023-03-25T01:27:12.340Z,4.32
2023-03-25T01:28:17.698Z,4.05
2023-03-25T01:29:21.710Z,4.28
2023-03-25T01:30:24.124Z,4.28
2023-03-25T01:31:30.572Z,4.45
2023-03-25T01:32:34.416Z,4.28
2023-03-25T01:33:38.512Z,4.18
2023-03-25T01:34:43.120Z,3.65
2023-03-25T01:35:50.454Z,4.07
2023-03-25T01:36:55.182Z,3.90
2023-03-25T01:37:57.376Z,3.28
2023-03-25T01:39:01.649Z,4.65
2023-03-25T01:40:08.165Z,4.43
2023-03-25T01:41:10.831Z,4.35
2023-03-25T01:42:13.402Z,4.30
2023-03-25T01:43:16.327Z,4.28
2023-03-25T01:44:56.769Z,4.32
2023-03-25T01:46:01.746Z,3.80
2023-03-25T01:47:05.249Z,3.65
2023-03-25T01:48:12.076Z,4.57
2023-03-25T01:49:21.698Z,4.20
2023-03-25T01:50:24.118Z,3.80
2023-03-25T01:51:29.890Z,4.25
2023-03-25T01:52:33.724Z,3.90
2023-03-25T01:53:35.978Z,4.28
2023-03-25T01:54:39.064Z,4.22
2023-03-25T01:55:41.324Z,4.07
2023-03-25T01:56:46.771Z,4.05
2023-03-25T01:57:50.194Z,3.85
2023-03-25T01:58:54.008Z,3.70
2023-03-25T01:59:56.236Z,3.75
2023-03-25T02:01:01.363Z,4.35
2023-03-25T02:02:09.114Z,3.87
2023-03-25T02:03:13.072Z,4.78
2023-03-25T02:04:27.256Z,3.30
2023-03-25T02:05:36.059Z,3.70
2023-03-25T02:06:42.761Z,3.85
2023-03-25T02:07:49.211Z,4.25
2023-03-25T02:08:58.112Z,4.05
2023-03-25T02:10:03.044Z,3.70
2023-03-25T02:11:07.343Z,3.95
2023-03-25T02:12:09.549Z,4.68
2023-03-25T02:13:12.130Z,3.67
2023-03-25T02:14:17.849Z,4.18
2023-03-25T02:15:21.072Z,3.78
2023-03-25T02:16:30.457Z,4.47
2023-03-25T02:17:44.123Z,4.60
2023-03-25T02:18:53.248Z,3.85
2023-03-25T02:20:20.345Z,3.60
2023-03-25T02:21:57.038Z,3.70
2023-03-25T02:23:44.636Z,3.67
2023-03-25T02:25:14.280Z,4.15
2023-03-25T02:26:36.655Z,3.95
2023-03-25T02:27:49.039Z,3.95
2023-03-25T02:28:56.234Z,4.00
2023-03-25T02:30:25.559Z,4.10
2023-03-25T02:32:59.229Z,4.00
2023-03-25T02:34:41.999Z,3.70
2023-03-25T02:36:06.924Z,3.90
2023-03-25T02:37:30.806Z,3.65
2023-03-25T02:38:43.347Z,4.18
2023-03-25T02:39:49.778Z,3.60
2023-03-25T02:40:59.147Z,3.95
2023-03-25T02:42:08.249Z,3.85
2023-03-25T02:43:18.255Z,3.60
2023-03-25T02:44:30.835Z,3.63
2023-03-25T02:45:36.250Z,3.33
2023-03-25T02:46:43.533Z,3.40
2023-03-25T02:47:50.757Z,3.47
2023-03-25T02:48:57.605Z,3.72
2023-03-25T02:50:04.949Z,4.20
2023-03-25T02:51:12.398Z,4.35
2023-03-25T02:52:20.471Z,4.30
2023-03-25T02:53:27.414Z,3.85
2023-03-25T02:54:33.995Z,4.15
2023-03-25T02:55:37.469Z,4.47
2023-03-25T02:56:44.712Z,3.33
2023-03-25T02:57:50.243Z,4.22
2023-03-25T02:58:58.081Z,4.47
2023-03-25T03:02:09.074Z,5.00
2023-03-25T03:03:11.698Z,4.60
2023-03-25T03:04:13.991Z,4.80
2023-03-25T03:05:24.903Z,3.70
2023-03-25T03:06:28.443Z,3.40
2023-03-25T03:07:34.674Z,3.58
2023-03-25T03:08:47.636Z,3.88
2023-03-25T03:09:59.221Z,3.85
2023-03-25T03:11:07.838Z,4.75
2023-03-25T03:12:19.637Z,4.55
2023-03-25T03:13:32.812Z,3.53
2023-03-25T03:14:48.085Z,3.70
2023-03-25T03:16:01.339Z,3.42
2023-03-25T03:18:34.160Z,3.60
2023-03-25T03:19:41.704Z,3.43
2023-03-25T03:20:52.354Z,3.80
2023-03-25T03:22:01.347Z,4.00
2023-03-25T03:23:10.985Z,3.65
2023-03-25T03:24:18.096Z,3.55
2023-03-25T03:25:29.963Z,4.30
2023-03-25T03:26:39.069Z,4.10
2023-03-25T03:27:47.068Z,3.70
2023-03-25T06:58:45.127Z,4.00
2023-03-25T06:59:48.345Z,3.70
2023-03-25T07:00:53.931Z,3.85
2023-03-25T07:01:57.200Z,3.05
2023-03-25T07:02:59.474Z,4.32
2023-03-25T07:04:04.130Z,4.15
2023-03-25T07:05:08.928Z,3.63
2023-03-25T07:06:16.318Z,3.60
2023-03-25T07:07:18.542Z,3.30
2023-03-25T07:08:20.676Z,2.75
2023-03-25T07:09:22.851Z,3.72
2023-03-25T07:10:25.017Z,3.85
2023-03-25T07:11:29.757Z,4.20
2023-03-25T07:12:35.272Z,2.78
2023-03-25T07:13:37.374Z,3.50
2023-03-25T07:14:39.541Z,3.38
2023-03-25T07:15:41.804Z,3.85
2023-03-25T07:16:44.062Z,3.53
2023-03-25T07:17:49.420Z,3.65
2023-03-25T07:18:52.087Z,3.42
2023-03-25T07:19:54.200Z,3.13
2023-03-25T07:20:57.797Z,3.40
2023-03-25T07:22:00.383Z,3.78
2023-03-25T07:23:02.682Z,2.72
2023-03-25T07:24:05.429Z,3.90
2023-03-25T07:25:08.293Z,3.63
2023-03-25T07:26:10.624Z,3.45
2023-03-25T07:27:13.998Z,2.80
2023-03-25T07:28:16.345Z,3.60
2023-03-25T07:29:19.376Z,3.20
2023-03-25T07:30:21.673Z,2.60
2023-03-25T07:31:24.000Z,3.28
2023-03-25T07:32:26.269Z,3.50
2023-03-25T07:33:29.004Z,4.30
2023-03-25T07:34:31.298Z,4.07
2023-03-25T07:35:33.591Z,3.55
2023-03-25T07:36:37.356Z,2.95
2023-03-25T07:37:39.789Z,3.45
2023-03-25T07:38:42.154Z,3.35
2023-03-25T07:39:44.373Z,3.50
2023-03-25T07:40:49.903Z,3.72
2023-03-25T07:41:53.079Z,4.10
2023-03-25T07:42:55.367Z,3.35
2023-03-25T07:43:57.532Z,4.25
2023-03-25T07:44:59.825Z,3.55
2023-03-25T07:46:02.457Z,3.80
2023-03-25T07:47:05.072Z,3.90
2023-03-25T07:48:13.633Z,3.47
2023-03-25T07:49:16.627Z,3.28
2023-03-25T07:50:18.974Z,3.33
2023-03-25T07:51:21.224Z,3.42
2023-03-25T07:52:24.930Z,3.15
2023-03-25T07:53:27.684Z,3.40
2023-03-25T07:54:29.944Z,3.50
2023-03-25T07:55:34.385Z,3.90
2023-03-25T07:56:36.664Z,3.05
2023-03-25T07:57:40.912Z,3.55
2023-03-25T07:58:44.560Z,4.13
2023-03-25T07:59:46.868Z,3.63
2023-03-25T08:00:49.114Z,3.17
2023-03-25T08:01:54.430Z,2.75
2023-03-25T08:02:57.083Z,3.97
2023-03-25T08:03:59.719Z,3.55
2023-03-25T08:05:04.742Z,3.97
2023-03-25T08:06:08.091Z,3.42
2023-03-25T08:07:12.247Z,3.67
2023-03-25T08:08:19.999Z,3.38
2023-03-25T08:09:27.878Z,3.08
2023-03-25T08:10:36.403Z,3.20
2023-03-25T08:11:41.767Z,3.70
2023-03-25T08:12:44.786Z,2.50
2023-03-25T08:13:52.957Z,3.22
2023-03-25T08:14:57.604Z,3.28
2023-03-25T08:16:00.063Z,3.13
2023-03-25T08:17:05.642Z,3.15
2023-03-25T08:18:08.425Z,2.63
2023-03-25T08:19:11.166Z,2.97
2023-03-25T08:20:13.414Z,2.33
2023-03-25T08:21:16.272Z,3.10
2023-03-25T08:22:21.426Z,3.33
2023-03-25T08:23:26.745Z,2.97
2023-03-25T08:24:30.176Z,2.88
2023-03-25T08:25:34.242Z,3.00
2023-03-25T08:26:52.404Z,2.53
2023-03-25T08:27:59.854Z,2.83
2023-03-25T08:29:03.045Z,2.30
2023-03-25T08:30:06.358Z,2.58
2023-03-25T08:31:09.581Z,2.42
2023-03-25T08:32:12.015Z,2.42
2023-03-25T08:33:14.239Z,2.78
2023-03-25T08:34:16.690Z,2.50
2023-03-25T08:35:19.760Z,2.80
2023-03-25T08:36:24.442Z,3.03
2023-03-25T08:37:26.589Z,2.63
2023-03-25T08:38:34.792Z,2.55
2023-03-25T08:39:40.186Z,3.10
2023-03-25T08:40:43.993Z,2.97
2023-03-25T08:41:46.850Z,2.15
2023-03-25T08:42:49.087Z,2.15
2023-03-25T08:43:56.036Z,2.20
2023-03-25T08:44:58.379Z,2.33
2023-03-25T08:46:02.686Z,2.88
2023-03-25T08:47:05.850Z,3.10
2023-03-25T08:48:08.014Z,2.40
2023-03-25T08:49:10.302Z,3.00
2023-03-25T08:50:12.436Z,2.85
2023-03-25T08:51:14.540Z,2.78
2023-03-25T08:52:16.635Z,2.72
2023-03-25T08:53:20.861Z,3.20
2023-03-25T08:54:24.474Z,3.33
2023-03-25T08:55:26.757Z,3.80
2023-03-25T08:56:29.335Z,2.85
2023-03-25T08:57:31.523Z,2.75
2023-03-25T08:58:33.769Z,3.08
2023-03-25T08:59:36.090Z,2.63
2023-03-25T09:00:38.577Z,4.40
2023-03-25T09:01:42.304Z,3.00
2023-03-25T09:02:44.628Z,2.90
2023-03-25T09:03:46.777Z,2.90
2023-03-25T09:04:49.169Z,2.83
2023-03-25T09:05:51.837Z,2.92
2023-03-25T09:07:10.215Z,2.70
2023-03-25T09:08:15.043Z,3.22
2023-03-25T09:09:23.286Z,2.90
2023-03-25T09:10:28.250Z,2.65
2023-03-25T09:11:36.410Z,2.95
2023-03-25T09:12:41.427Z,2.80
2023-03-25T09:13:44.254Z,3.22
2023-03-25T09:14:46.652Z,2.60
2023-03-25T09:15:48.949Z,3.30
2023-03-25T09:16:51.452Z,2.67
2023-03-25T09:17:53.995Z,3.00
2023-03-25T09:18:59.237Z,3.25
2023-03-25T09:20:01.957Z,3.38
2023-03-25T09:21:04.763Z,2.90
2023-03-25T09:22:07.460Z,3.40
2023-03-25T09:23:12.486Z,2.90
2023-03-25T09:24:14.772Z,3.58
2023-03-25T09:25:17.221Z,3.42
2023-03-25T09:26:21.006Z,3.25
2023-03-25T09:27:23.283Z,3.42
2023-03-25T09:28:25.667Z,3.42
2023-03-25T09:29:29.039Z,2.92
2023-03-25T09:30:31.352Z,3.10
2023-03-25T09:31:33.682Z,3.03
2023-03-25T09:32:36.441Z,3.20
2023-03-25T09:33:38.817Z,3.38
2023-03-25T09:34:41.157Z,3.47
2023-03-25T09:35:43.544Z,3.03
2023-03-25T09:36:47.984Z,4.38
2023-03-25T09:37:51.848Z,4.13
2023-03-25T09:38:54.366Z,2.92
2023-03-25T09:39:57.619Z,5.45
2023-03-25T09:41:06.352Z,4.97
2023-03-25T09:42:27.246Z,3.88
2023-03-25T09:43:41.256Z,3.72
2023-03-25T09:44:55.922Z,3.45
2023-03-25T09:45:59.942Z,2.50
2023-03-25T09:47:03.243Z,3.40
2023-03-25T09:48:19.840Z,2.60
2023-03-25T09:49:25.845Z,2.65
2023-03-25T09:50:50.293Z,3.97
2023-03-25T09:51:57.358Z,3.47
2023-03-25T09:53:03.729Z,2.95
2023-03-25T09:54:17.858Z,2.60
2023-03-25T09:55:25.418Z,2.95
2023-03-25T09:56:31.342Z,3.72
2023-03-25T09:57:44.057Z,3.38
2023-03-25T09:58:48.056Z,2.80
2023-03-25T09:59:52.494Z,2.45
2023-03-25T10:01:05.472Z,3.00
2023-03-25T10:02:21.784Z,3.92
2023-03-25T10:03:28.668Z,4.18
2023-03-25T10:05:01.121Z,3.10
2023-03-25T10:06:28.365Z,3.40
2023-03-25T10:07:44.606Z,2.63
2023-03-25T10:09:10.484Z,2.55
2023-03-25T10:10:19.936Z,3.17
2023-03-25T10:11:29.561Z,2.33
2023-03-25T10:12:51.096Z,2.45
2023-03-25T10:14:06.236Z,2.28
2023-03-25T10:15:24.665Z,2.88
2023-03-25T10:16:37.342Z,2.72
2023-03-25T10:17:48.624Z,2.67
2023-03-25T10:19:00.231Z,2.95
2023-03-25T10:20:12.905Z,2.63
2023-03-25T10:21:22.460Z,2.72
2023-03-25T10:22:28.548Z,3.10
2023-03-25T10:23:36.484Z,2.88
2023-03-25T10:24:43.021Z,2.88
2023-03-25T10:25:53.408Z,2.45
2023-03-25T10:27:00.071Z,2.38
2023-03-25T10:28:05.813Z,3.65
2023-03-25T10:29:13.860Z,3.28
2023-03-25T10:30:42.389Z,2.90
2023-03-25T10:31:50.865Z,4.18
2023-03-25T10:32:57.194Z,3.20
2023-03-25T10:34:05.694Z,3.30
2023-03-25T10:35:15.616Z,3.50
2023-03-25T10:36:19.413Z,3.42
2023-03-25T10:37:28.913Z,3.35
2023-03-25T10:38:39.254Z,2.67
2023-03-25T10:39:45.548Z,2.72
2023-03-25T10:40:53.203Z,3.10
2023-03-25T10:41:59.773Z,2.85
2023-03-25T10:43:17.045Z,3.53
2023-03-25T10:44:21.340Z,3.20
2023-03-25T10:45:25.041Z,3.20
2023-03-25T10:46:32.104Z,3.83
2023-03-25T10:47:38.216Z,2.75
2023-03-25T10:48:40.826Z,4.93
2023-03-25T10:49:44.022Z,3.83
2023-03-25T10:50:48.090Z,5.20
2023-03-25T10:51:57.596Z,3.70
2023-03-25T10:53:00.504Z,5.15
2023-03-25T10:54:03.918Z,4.13
2023-03-25T10:55:14.057Z,4.45
2023-03-25T10:56:19.289Z,3.97
2023-03-25T10:57:26.414Z,4.30
2023-03-25T10:58:30.415Z,4.75
2023-03-25T10:59:37.076Z,2.63
2023-03-25T11:00:40.621Z,3.83
2023-03-25T11:01:43.654Z,3.95
2023-03-25T11:02:47.042Z,2.63
2023-03-25T11:03:52.211Z,2.90
2023-03-25T11:04:57.530Z,4.65
2023-03-25T11:05:59.737Z,3.60
2023-03-25T11:07:05.812Z,3.72
2023-03-25T11:08:23.691Z,5.22
2023-03-25T11:09:30.449Z,5.43
2023-03-25T11:10:34.604Z,3.20
2023-03-25T11:11:37.156Z,3.35
2023-03-25T11:12:43.737Z,4.03
2023-03-25T11:13:56.098Z,3.75
2023-03-25T11:14:59.033Z,3.63
2023-03-25T11:16:03.725Z,3.03
2023-03-25T11:17:11.550Z,2.75
2023-03-25T11:18:20.867Z,3.53
2023-03-25T11:19:28.057Z,3.95
2023-03-25T11:20:35.708Z,3.47
2023-03-25T11:21:37.900Z,2.92
2023-03-25T11:22:47.852Z,3.45
2023-03-25T11:23:53.879Z,2.80
2023-03-25T11:25:08.206Z,3.28
2023-03-25T11:26:31.633Z,3.63
2023-03-25T11:27:47.701Z,3.90
2023-03-25T11:28:53.559Z,2.85
2023-03-25T11:30:00.680Z,2.67
2023-03-25T11:31:17.646Z,3.40
2023-03-25T11:32:25.089Z,2.78
2023-03-25T11:33:27.306Z,3.20
2023-03-25T11:34:31.445Z,3.40
2023-03-25T11:35:37.911Z,2.90
2023-03-25T11:36:47.154Z,2.70
2023-03-25T11:37:56.013Z,2.67
2023-03-25T11:39:00.542Z,3.28
2023-03-25T11:40:06.782Z,2.85
2023-03-25T11:41:09.126Z,6.05
2023-03-25T11:42:20.730Z,3.08
2023-03-25T11:43:25.120Z,2.75
2023-03-25T11:44:30.906Z,3.25
2023-03-25T11:45:35.741Z,2.97
2023-03-25T11:46:42.964Z,2.85
2023-03-25T11:47:45.497Z,3.22
2023-03-25T11:48:48.757Z,3.00
2023-03-25T11:49:53.644Z,3.45
2023-03-25T11:50:57.973Z,3.08
2023-03-25T11:52:04.577Z,3.08
2023-03-25T11:53:06.919Z,3.13
2023-03-25T11:54:14.499Z,2.58
2023-03-25T11:55:20.600Z,3.13
2023-03-25T11:56:29.101Z,2.83
2023-03-25T11:57:41.423Z,2.83
2023-03-25T11:58:43.901Z,3.17
2023-03-25T11:59:48.910Z,2.67
2023-03-25T12:00:53.657Z,2.78
2023-03-25T12:02:13.443Z,2.60
2023-03-25T12:03:27.499Z,2.50
2023-03-25T12:04:35.935Z,2.80
2023-03-25T12:05:44.070Z,2.15
2023-03-25T12:06:55.328Z,2.65
2023-03-25T12:09:30.735Z,2.65
2023-03-25T12:10:47.174Z,2.70
2023-03-25T12:12:09.562Z,2.97
2023-03-25T12:13:21.265Z,3.17
2023-03-25T12:14:36.241Z,3.53
2023-03-25T12:15:44.128Z,3.60
2023-03-25T12:16:56.043Z,3.78
2023-03-25T12:18:12.624Z,2.63
2023-03-25T12:19:24.960Z,2.95
2023-03-25T12:20:32.712Z,3.65
2023-03-25T12:21:48.097Z,3.38
2023-03-25T12:23:02.362Z,2.80
2023-03-25T12:24:18.897Z,3.08
2023-03-25T12:25:27.834Z,3.35
2023-03-25T12:26:37.479Z,3.35
2023-03-25T12:27:53.573Z,3.67
2023-03-25T12:29:19.709Z,3.10
2023-03-25T12:30:31.835Z,3.85
2023-03-25T12:31:46.876Z,3.15
2023-03-25T12:32:54.735Z,3.28
2023-03-25T12:34:08.279Z,3.00
2023-03-25T12:35:23.312Z,4.35
2023-03-25T12:36:39.351Z,3.95
2023-03-25T12:38:00.529Z,4.80
2023-03-25T12:39:17.299Z,3.10
2023-03-25T12:40:36.960Z,4.93
2023-03-25T12:41:44.136Z,3.85
2023-03-25T12:42:55.828Z,3.75
2023-03-25T12:44:02.629Z,3.97
2023-03-25T12:45:23.828Z,3.72
2023-03-25T12:46:47.553Z,3.40
2023-03-25T12:47:55.502Z,3.45
2023-03-25T12:49:14.878Z,4.07
2023-03-25T12:50:34.991Z,2.80
2023-03-25T12:51:45.279Z,3.20
2023-03-25T12:52:57.408Z,3.75
2023-03-25T12:54:09.613Z,2.50
2023-03-25T12:55:31.873Z,2.70
2023-03-25T12:56:52.642Z,3.20
2023-03-25T12:58:07.119Z,3.40
2023-03-25T12:59:26.980Z,2.47
2023-03-25T13:00:39.185Z,3.58
2023-03-25T13:01:53.861Z,4.35
2023-03-25T13:03:35.091Z,2.70
2023-03-25T13:04:55.992Z,3.60
2023-03-25T13:06:06.761Z,6.43
2023-03-25T13:07:13.381Z,5.78
2023-03-25T13:08:19.793Z,4.85
2023-03-25T13:09:26.737Z,4.20
2023-03-25T13:10:33.453Z,3.58
2023-03-25T13:11:41.202Z,3.67
2023-03-25T13:12:49.753Z,3.22
2023-03-25T13:13:55.939Z,2.70
2023-03-25T13:15:05.041Z,2.95
2023-03-25T13:16:11.508Z,2.83
2023-03-25T13:17:24.689Z,3.33
2023-03-25T13:18:31.160Z,3.72
2023-03-25T13:19:39.300Z,2.72
2023-03-25T13:20:45.340Z,2.40
2023-03-25T13:21:52.787Z,3.20
2023-03-25T13:23:01.673Z,3.05
2023-03-25T13:24:10.465Z,3.53
2023-03-25T13:25:21.428Z,3.28
2023-03-25T13:26:25.450Z,3.00
2023-03-25T13:27:34.007Z,2.72
2023-03-25T13:28:39.977Z,2.60
2023-03-25T13:29:44.767Z,3.25
2023-03-25T13:30:49.614Z,4.43
2023-03-25T13:31:53.808Z,4.60
2023-03-25T13:33:02.011Z,3.63
2023-03-25T13:34:16.544Z,3.22
2023-03-25T13:35:23.577Z,3.30
2023-03-25T13:36:29.558Z,3.10
2023-03-25T13:37:35.208Z,3.42
2023-03-25T13:38:43.062Z,4.57
2023-03-25T13:39:56.939Z,3.53
2023-03-25T13:41:09.695Z,5.15
2023-03-25T13:42:17.803Z,3.40
2023-03-25T13:43:26.713Z,5.35
2023-03-25T13:44:33.194Z,5.18
2023-03-25T13:45:45.933Z,5.75
2023-03-25T13:46:51.377Z,4.00
2023-03-25T13:48:03.885Z,5.10
2023-03-25T13:49:13.509Z,5.03
2023-03-25T13:50:23.838Z,4.25
2023-03-25T13:51:26.413Z,4.35
2023-03-25T13:52:36.346Z,3.92
2023-03-25T13:53:44.233Z,3.25
2023-03-25T13:54:52.977Z,3.47
2023-03-25T13:56:09.963Z,3.97
2023-03-25T13:57:38.303Z,4.43
2023-03-25T13:59:08.050Z,5.60
2023-03-25T14:00:38.748Z,4.47
2023-03-25T14:02:01.373Z,4.50
2023-03-25T14:03:36.831Z,3.05
2023-03-25T14:05:10.781Z,2.83
2023-03-25T14:06:43.789Z,3.45
2023-03-25T14:08:02.340Z,3.40
2023-03-25T14:09:38.879Z,6.63
2023-03-25T14:10:52.821Z,4.88
2023-03-25T14:12:02.123Z,4.82
2023-03-25T14:13:07.005Z,4.38
2023-03-25T14:14:11.805Z,3.63
2023-03-25T14:15:20.245Z,3.60
2023-03-25T14:16:25.789Z,4.60
2023-03-25T14:17:29.003Z,5.53
2023-03-25T14:18:35.523Z,4.80
2023-03-25T14:19:40.277Z,3.35
2023-03-25T14:20:42.454Z,3.28
2023-03-25T14:21:49.224Z,3.47
2023-03-25T14:22:57.485Z,3.40
2023-03-25T14:24:06.195Z,5.47
2023-03-25T14:25:21.139Z,3.72
2023-03-25T14:26:23.588Z,3.63
2023-03-25T14:27:29.916Z,4.22
2023-03-25T14:28:37.960Z,3.13
2023-03-25T14:29:43.507Z,4.25
2023-03-25T14:31:05.864Z,4.20
2023-03-25T14:32:33.763Z,4.07
2023-03-25T14:34:26.486Z,3.45
2023-03-25T14:35:49.194Z,3.45
2023-03-25T14:37:27.385Z,3.63
2023-03-25T14:38:53.441Z,3.88
2023-03-25T14:39:59.853Z,4.55
2023-03-25T14:41:03.710Z,4.15
2023-03-25T14:42:22.843Z,3.35
2023-03-25T14:43:27.040Z,3.47
2023-03-25T14:44:33.089Z,3.50
2023-03-25T14:45:59.350Z,3.60
2023-03-25T14:47:25.798Z,3.60
2023-03-25T14:48:34.736Z,4.15
2023-03-25T14:50:06.939Z,3.15
2023-03-25T14:51:20.951Z,3.42
2023-03-25T14:52:56.064Z,3.50
2023-03-25T14:54:03.109Z,3.15
2023-03-25T14:55:13.698Z,3.90
2023-03-25T14:56:19.607Z,4.55
2023-03-25T14:57:31.492Z,3.30
2023-03-25T14:58:39.147Z,3.72
2023-03-25T14:59:43.880Z,4.07
2023-03-25T15:00:53.354Z,4.70
2023-03-25T15:02:03.152Z,3.78
2023-03-25T15:03:12.071Z,4.70
2023-03-25T15:04:22.739Z,4.25
2023-03-25T15:05:59.527Z,4.15
2023-03-25T15:07:12.822Z,4.28
2023-03-25T15:08:17.675Z,3.80
2023-03-25T15:09:21.089Z,3.88
2023-03-25T15:10:26.414Z,5.10
2023-03-25T15:11:33.751Z,4.85
2023-03-25T15:12:40.029Z,6.35
2023-03-25T15:13:46.701Z,5.20
2023-03-25T15:14:54.535Z,3.83
2023-03-25T15:16:01.872Z,4.32
2023-03-25T15:17:06.523Z,5.93
2023-03-25T15:18:10.277Z,5.15
2023-03-25T15:19:13.851Z,4.20
2023-03-25T15:20:36.254Z,5.00
2023-03-25T15:22:15.466Z,4.82
2023-03-25T15:23:39.368Z,3.78
2023-03-25T15:24:47.348Z,4.93
2023-03-25T15:25:54.897Z,3.33
2023-03-25T15:27:00.657Z,4.13
2023-03-25T15:28:16.698Z,4.95
2023-03-25T15:29:48.852Z,4.85
2023-03-25T15:31:20.284Z,4.47
2023-03-25T15:32:42.971Z,4.50
2023-03-25T15:33:57.951Z,4.60
2023-03-25T15:35:27.152Z,3.80
2023-03-25T15:37:02.456Z,2.83
2023-03-25T15:38:37.669Z,4.10
2023-03-25T15:39:59.869Z,5.60
2023-03-25T15:41:15.935Z,3.60
2023-03-25T15:42:44.092Z,3.30
2023-03-25T15:44:02.956Z,4.35
2023-03-25T15:45:29.476Z,3.70
2023-03-25T15:47:01.040Z,3.85
2023-03-25T15:48:22.975Z,3.35
2023-03-25T15:49:46.934Z,3.42
2023-03-25T15:51:07.093Z,3.72
2023-03-25T15:52:23.735Z,3.90
2023-03-25T15:53:58.761Z,3.60
2023-03-25T15:55:07.313Z,3.67
2023-03-25T15:56:12.785Z,3.58
2023-03-25T15:57:22.625Z,4.80
2023-03-25T15:58:31.416Z,3.20
2023-03-25T15:59:43.131Z,3.75
2023-03-25T16:00:48.738Z,4.10
2023-03-25T16:01:53.009Z,3.78
2023-03-25T16:03:02.282Z,3.55
2023-03-25T16:04:07.570Z,3.88
2023-03-25T16:05:14.180Z,4.80
2023-03-25T16:06:18.342Z,4.10
2023-03-25T16:07:28.753Z,3.42
2023-03-25T16:08:32.597Z,3.80
2023-03-25T16:09:41.710Z,4.60
2023-03-25T16:10:46.377Z,4.88
2023-03-25T16:11:48.483Z,4.85
2023-03-25T16:12:50.982Z,5.15
2023-03-25T16:14:09.383Z,4.55
2023-03-25T16:15:15.551Z,4.40
2023-03-25T16:16:18.727Z,4.13
2023-03-25T16:17:25.650Z,4.15
2023-03-25T16:18:28.268Z,4.03
2023-03-25T16:19:37.796Z,3.60
2023-03-25T16:20:40.059Z,4.30
2023-03-25T16:21:42.327Z,4.60
2023-03-25T16:22:48.846Z,4.43
2023-03-25T16:23:54.927Z,4.70
2023-03-25T16:24:59.948Z,4.78
2023-03-25T16:26:02.141Z,5.07
2023-03-25T16:27:10.572Z,8.25
2023-03-25T16:28:17.567Z,4.57
2023-03-25T16:29:22.447Z,4.90
2023-03-25T16:30:28.561Z,9.60
2023-03-25T16:31:34.722Z,8.25
2023-03-25T16:32:37.456Z,4.80
2023-03-25T16:33:40.068Z,5.30
2023-03-25T16:34:42.157Z,5.47
2023-03-25T16:35:47.195Z,5.60
2023-03-25T16:36:51.857Z,5.03
2023-03-25T16:37:57.707Z,6.35
2023-03-25T16:38:59.887Z,5.50
2023-03-25T16:40:06.203Z,5.88
2023-03-25T16:41:12.452Z,5.85
2023-03-25T16:42:19.222Z,5.45
2023-03-25T16:43:24.304Z,5.85
2023-03-25T16:44:26.760Z,6.70
2023-03-25T16:45:28.968Z,7.43
2023-03-25T16:46:33.084Z,7.13
2023-03-25T16:47:35.577Z,7.80
2023-03-25T16:48:40.063Z,7.20
2023-03-25T16:49:46.210Z,7.30
2023-03-25T16:50:48.872Z,6.43
2023-03-25T16:51:51.914Z,7.22
2023-03-25T16:52:56.235Z,6.93
2023-03-25T16:54:01.084Z,6.38
2023-03-25T16:55:29.435Z,7.13
2023-03-25T16:56:32.645Z,7.38
2023-03-25T16:57:38.099Z,7.43
2023-03-25T16:58:58.042Z,8.75
2023-03-25T17:00:17.372Z,8.32
2023-03-25T17:01:21.920Z,10.52
2023-03-25T17:02:27.219Z,11.05
2023-03-25T17:03:43.478Z,11.20
2023-03-25T17:04:45.706Z,10.65
2023-03-25T17:05:56.902Z,10.25
2023-03-25T17:07:02.954Z,11.75
2023-03-25T17:08:08.130Z,12.35
2023-03-25T17:09:16.975Z,10.38
2023-03-25T17:10:22.766Z,11.50
2023-03-25T17:11:28.374Z,12.13
2023-03-25T17:12:35.461Z,11.55
2023-03-25T17:13:42.541Z,15.13
2023-03-25T17:14:47.565Z,26.67
2023-03-25T17:15:51.620Z,36.47
2023-03-25T17:16:54.652Z,28.77
2023-03-25T17:18:01.364Z,22.60
2023-03-25T17:19:04.875Z,21.58
2023-03-25T17:20:18.057Z,20.33
2023-03-25T17:21:26.575Z,18.27
2023-03-25T17:22:34.076Z,16.83
2023-03-25T17:23:42.797Z,18.08
2023-03-25T17:24:55.184Z,13.30
2023-03-25T17:25:59.165Z,14.18
2023-03-25T17:27:06.790Z,11.27
2023-03-25T17:28:28.574Z,9.93
2023-03-25T17:29:30.849Z,8.05
2023-03-25T17:30:40.757Z,7.85
2023-03-25T17:31:43.309Z,6.05
2023-03-25T17:32:46.733Z,6.43
2023-03-25T17:33:51.055Z,5.30
2023-03-25T17:35:01.169Z,5.70
2023-03-25T17:36:08.363Z,4.68
2023-03-25T17:37:12.592Z,5.80
2023-03-25T17:38:24.095Z,5.25
2023-03-25T17:39:29.114Z,5.97
2023-03-25T17:40:33.315Z,5.60
2023-03-25T17:41:37.616Z,6.47
2023-03-25T17:42:41.012Z,5.68
2023-03-25T17:43:44.784Z,6.70
2023-03-25T17:44:46.981Z,5.63
2023-03-25T17:45:49.101Z,6.68
2023-03-25T17:46:51.394Z,5.85
2023-03-25T17:47:53.577Z,5.93
2023-03-25T17:48:59.896Z,6.43
2023-03-25T17:50:13.113Z,5.43
2023-03-25T17:51:20.804Z,6.28
2023-03-25T17:52:22.912Z,5.65
2023-03-25T17:53:26.345Z,5.80
2023-03-25T17:54:28.814Z,5.45
2023-03-25T17:55:32.800Z,4.93
2023-03-25T17:56:38.472Z,5.70
2023-03-25T17:57:41.472Z,4.95
2023-03-25T17:58:44.107Z,5.22
2023-03-25T17:59:47.312Z,5.15
2023-03-25T18:00:50.981Z,5.10
2023-03-25T18:01:53.746Z,5.10
2023-03-25T18:02:56.136Z,4.93
2023-03-25T18:03:58.689Z,6.00
2023-03-25T18:05:01.289Z,5.78
2023-03-25T18:06:03.842Z,5.72
2023-03-25T18:07:06.330Z,6.35
2023-03-25T18:08:12.056Z,6.57
2023-03-25T18:09:17.146Z,6.55
2023-03-25T18:10:21.717Z,6.35
2023-03-25T18:11:25.235Z,6.80
2023-03-25T18:12:27.504Z,6.53
2023-03-25T18:13:29.781Z,6.60
2023-03-25T18:14:32.000Z,6.30
2023-03-25T18:15:34.779Z,5.60
2023-03-25T18:16:36.950Z,6.13
2023-03-25T18:17:39.199Z,5.68
2023-03-25T18:18:41.402Z,5.25
2023-03-25T18:19:43.532Z,6.18
2023-03-25T18:20:46.773Z,5.60
2023-03-25T18:21:48.932Z,5.57
2023-03-25T18:22:52.521Z,6.25
2023-03-25T18:23:57.021Z,5.63
2023-03-25T18:24:59.120Z,6.03
2023-03-25T18:26:04.765Z,5.53
2023-03-25T18:27:14.229Z,5.18
2023-03-25T18:28:17.089Z,5.60
2023-03-25T18:29:21.721Z,5.72
2023-03-25T18:30:28.319Z,4.97
2023-03-25T18:31:31.043Z,5.18
2023-03-25T18:32:33.213Z,4.78
2023-03-25T18:33:35.477Z,4.88
2023-03-25T18:34:37.570Z,5.22
2023-03-25T18:35:39.700Z,4.53
2023-03-25T18:36:43.033Z,5.90
2023-03-25T18:37:46.586Z,6.55
2023-03-25T18:38:49.022Z,6.05
2023-03-25T18:39:51.140Z,5.95
2023-03-25T18:40:54.610Z,5.70